Wetterdaten: Woche 01.03.10 - 07.03.10 (KW9)
Datum Zeit Temperatur Luftfeuchte Luftdruck Niederschlag Wind Richtung Sonnenschein Solar Taupunkt Windchill Windben
01.03.2010 00:00 7.4 C 65 % 1006.9 hPa 0.0 l/m 21.9 km/h (4 Bft) W 0.00 h 0 W/m 1.3 C 4.0 C 32.6 km/h (5 Bft)
01.03.2010 01:00 6.7 C 71 % 1007.5 hPa 0.0 l/m 20.1 km/h (4 Bft) W 0.00 h 0 W/m 1.8 C 3.3 C 29.1 km/h (5 Bft)
01.03.2010 02:00 6.5 C 71 % 1008.1 hPa 0.0 l/m 15.4 km/h (3 Bft) W 0.00 h 0 W/m 1.6 C 3.5 C 22.8 km/h (4 Bft)
01.03.2010 03:00 6.3 C 69 % 1008.3 hPa 0.2 l/m 16.0 km/h (3 Bft) W 0.00 h 0 W/m 1.1 C 3.3 C 24.5 km/h (4 Bft)
01.03.2010 04:00 6.2 C 67 % 1008.7 hPa 0.0 l/m 11.2 km/h (2 Bft) W 0.00 h 0 W/m 0.5 C 3.9 C 17.8 km/h (3 Bft)
01.03.2010 05:00 5.8 C 66 % 1009.6 hPa 0.0 l/m 5.8 km/h (2 Bft) W 0.00 h 0 W/m 0.0 C 4.7 C 9.7 km/h (2 Bft)
01.03.2010 06:00 5.2 C 67 % 1010.3 hPa 0.0 l/m 2.6 km/h (1 Bft) W-SW 0.00 h 0 W/m -0.3 C 4.9 C 5.4 km/h (1 Bft)
01.03.2010 07:00 4.3 C 70 % 1010.8 hPa 0.0 l/m 1.1 km/h (0 Bft) S 0.10 h 27 W/m -0.7 C 4.3 C 2.5 km/h (1 Bft)
01.03.2010 08:00 5.1 C 70 % 1011.3 hPa 0.0 l/m 2.0 km/h (1 Bft) S 0.98 h 166 W/m 0.1 C 5.0 C 3.7 km/h (1 Bft)
01.03.2010 09:00 7.1 C 63 % 1011.4 hPa 0.0 l/m 6.3 km/h (2 Bft) W 1.00 h 325 W/m 0.6 C 6.3 C 9.9 km/h (2 Bft)
01.03.2010 10:00 7.8 C 60 % 1011.3 hPa 0.0 l/m 10.8 km/h (2 Bft) W 1.00 h 435 W/m 0.5 C 5.9 C 16.9 km/h (3 Bft)
01.03.2010 11:00 9.2 C 54 % 1011.2 hPa 0.0 l/m 7.0 km/h (2 Bft) W-NW 1.00 h 523 W/m 0.4 C 8.4 C 10.5 km/h (2 Bft)
01.03.2010 12:00 10.2 C 48 % 1011.2 hPa 0.0 l/m 8.0 km/h (2 Bft) W 1.00 h 552 W/m -0.4 C 9.9 C 12.4 km/h (3 Bft)
01.03.2010 13:00 11.4 C 44 % 1010.8 hPa 0.0 l/m 6.8 km/h (2 Bft) W 1.00 h 533 W/m -0.4 C 11.4 C 11.0 km/h (2 Bft)
01.03.2010 14:00 11.9 C 40 % 1010.2 hPa 0.0 l/m 7.7 km/h (2 Bft) W 1.00 h 477 W/m -1.4 C 11.9 C 11.8 km/h (2 Bft)
01.03.2010 15:00 11.9 C 36 % 1010.2 hPa 0.0 l/m 8.4 km/h (2 Bft) W-NW 0.53 h 252 W/m -2.6 C 11.9 C 12.7 km/h (3 Bft)
01.03.2010 16:00 11.2 C 39 % 1010.7 hPa 0.0 l/m 6.6 km/h (2 Bft) W-NW 0.18 h 121 W/m -2.3 C 11.2 C 10.1 km/h (2 Bft)
01.03.2010 17:00 10.2 C 41 % 1011.1 hPa 0.0 l/m 5.1 km/h (1 Bft) W 0.00 h 36 W/m -2.5 C 10.2 C 7.9 km/h (2 Bft)
01.03.2010 18:00 9.0 C 42 % 1011.9 hPa 0.0 l/m 1.4 km/h (1 Bft) W-SW 0.03 h 7 W/m -3.1 C 9.0 C 3.3 km/h (1 Bft)
01.03.2010 19:00 7.9 C 49 % 1013.0 hPa 0.0 l/m 1.2 km/h (1 Bft) N 0.00 h 0 W/m -2.2 C 7.9 C 2.5 km/h (1 Bft)
01.03.2010 20:00 6.8 C 55 % 1013.5 hPa 0.0 l/m 1.3 km/h (1 Bft) O-NO 0.00 h 0 W/m -1.6 C 6.8 C 2.6 km/h (1 Bft)
01.03.2010 21:00 6.0 C 62 % 1014.1 hPa 0.0 l/m 0.5 km/h (0 Bft) O-NO 0.00 h 0 W/m -0.8 C 6.0 C 1.6 km/h (1 Bft)
01.03.2010 22:00 5.1 C 68 % 1014.7 hPa 0.0 l/m 0.3 km/h (0 Bft) O-NO 0.00 h 0 W/m -0.3 C 5.1 C 0.8 km/h (0 Bft)
01.03.2010 23:00 4.5 C 71 % 1015.1 hPa 0.0 l/m 0.4 km/h (0 Bft) O-NO 0.00 h 0 W/m -0.3 C 4.5 C 0.9 km/h (0 Bft)
02.03.2010 00:00 4.0 C 75 % 1015.7 hPa 0.0 l/m 0.6 km/h (0 Bft) O-NO 0.00 h 0 W/m -0.1 C 4.0 C 1.4 km/h (1 Bft)
02.03.2010 01:00 3.7 C 77 % 1016.5 hPa 0.0 l/m 1.7 km/h (1 Bft) O-SO 0.00 h 0 W/m 0.0 C 3.4 C 2.5 km/h (1 Bft)
02.03.2010 02:00 3.9 C 77 % 1016.6 hPa 0.0 l/m 2.1 km/h (1 Bft) O-SO 0.00 h 0 W/m 0.2 C 3.7 C 3.7 km/h (1 Bft)
02.03.2010 03:00 3.9 C 76 % 1016.7 hPa 0.0 l/m 0.4 km/h (0 Bft) O 0.00 h 0 W/m -0.0 C 3.9 C 0.8 km/h (0 Bft)
02.03.2010 04:00 3.5 C 79 % 1017.2 hPa 0.0 l/m 1.5 km/h (1 Bft) O-SO 0.00 h 0 W/m 0.2 C 3.4 C 2.5 km/h (1 Bft)
02.03.2010 05:00 3.3 C 81 % 1017.8 hPa 0.0 l/m 1.6 km/h (1 Bft) SO 0.00 h 0 W/m 0.3 C 3.1 C 2.7 km/h (1 Bft)
02.03.2010 06:00 3.7 C 83 % 1018.2 hPa 0.2 l/m 1.9 km/h (1 Bft) S-SO 0.00 h 0 W/m 1.1 C 3.5 C 3.7 km/h (1 Bft)
02.03.2010 07:00 3.8 C 87 % 1018.7 hPa 0.4 l/m 0.8 km/h (0 Bft) SO 0.00 h 11 W/m 1.9 C 3.8 C 1.8 km/h (1 Bft)
02.03.2010 08:00 4.2 C 90 % 1019.2 hPa 0.0 l/m 0.1 km/h (0 Bft) SO 0.00 h 71 W/m 2.7 C 4.2 C 0.6 km/h (0 Bft)
02.03.2010 09:00 4.7 C 91 % 1019.7 hPa 0.0 l/m 2.1 km/h (1 Bft) W 0.12 h 155 W/m 3.3 C 4.6 C 4.0 km/h (1 Bft)
02.03.2010 10:00 5.1 C 88 % 1020.4 hPa 1.2 l/m 0.7 km/h (0 Bft) W 0.00 h 83 W/m 3.3 C 5.0 C 1.8 km/h (1 Bft)
02.03.2010 11:00 5.5 C 89 % 1020.6 hPa 0.6 l/m 2.0 km/h (1 Bft) N-NW 0.00 h 106 W/m 3.9 C 5.4 C 4.1 km/h (1 Bft)
02.03.2010 12:00 5.7 C 91 % 1020.9 hPa 0.2 l/m 3.7 km/h (1 Bft) W 0.00 h 142 W/m 4.3 C 5.2 C 6.0 km/h (2 Bft)
02.03.2010 13:00 6.0 C 90 % 1020.8 hPa 0.4 l/m 4.6 km/h (1 Bft) W-NW 0.03 h 160 W/m 4.4 C 5.4 C 7.4 km/h (2 Bft)
02.03.2010 14:00 7.3 C 87 % 1020.9 hPa 0.0 l/m 4.9 km/h (1 Bft) W-NW 0.65 h 354 W/m 5.3 C 6.7 C 8.0 km/h (2 Bft)
02.03.2010 15:00 8.6 C 79 % 1020.9 hPa 0.0 l/m 9.3 km/h (2 Bft) W 0.22 h 197 W/m 5.1 C 7.1 C 14.4 km/h (3 Bft)
02.03.2010 16:00 8.1 C 78 % 1021.3 hPa 0.0 l/m 7.6 km/h (2 Bft) W 0.00 h 60 W/m 4.6 C 6.9 C 12.0 km/h (2 Bft)
02.03.2010 17:00 7.8 C 80 % 1021.6 hPa 0.0 l/m 3.9 km/h (1 Bft) W-NW 0.03 h 33 W/m 4.6 C 7.5 C 6.2 km/h (2 Bft)
02.03.2010 18:00 7.4 C 81 % 1022.2 hPa 0.0 l/m 2.8 km/h (1 Bft) W-NW 0.00 h 6 W/m 4.4 C 7.3 C 4.4 km/h (1 Bft)
02.03.2010 19:00 6.7 C 84 % 1022.8 hPa 0.0 l/m 1.3 km/h (1 Bft) S-SO 0.00 h 0 W/m 4.1 C 6.7 C 2.6 km/h (1 Bft)
02.03.2010 20:00 6.0 C 86 % 1023.1 hPa 0.0 l/m 2.5 km/h (1 Bft) O 0.00 h 0 W/m 3.8 C 5.8 C 4.3 km/h (1 Bft)
02.03.2010 21:00 5.4 C 88 % 1023.2 hPa 0.0 l/m 1.9 km/h (1 Bft) O-SO 0.00 h 0 W/m 3.5 C 5.2 C 3.6 km/h (1 Bft)
02.03.2010 22:00 4.7 C 88 % 1023.3 hPa 0.0 l/m 1.4 km/h (1 Bft) O-SO 0.00 h 0 W/m 2.9 C 4.7 C 3.6 km/h (1 Bft)
02.03.2010 23:00 4.6 C 85 % 1023.3 hPa 0.0 l/m 0.3 km/h (0 Bft) O-SO 0.00 h 0 W/m 2.3 C 4.6 C 1.1 km/h (1 Bft)
03.03.2010 00:00 4.5 C 86 % 1023.0 hPa 0.0 l/m 0.9 km/h (0 Bft) N-NO 0.00 h 0 W/m 2.3 C 4.5 C 2.8 km/h (1 Bft)
03.03.2010 01:00 4.3 C 86 % 1023.3 hPa 0.0 l/m 1.6 km/h (1 Bft) NO 0.00 h 0 W/m 2.2 C 4.3 C 4.0 km/h (1 Bft)
03.03.2010 02:00 4.0 C 85 % 1022.8 hPa 0.0 l/m 2.3 km/h (1 Bft) O-NO 0.00 h 0 W/m 1.8 C 3.7 C 4.8 km/h (1 Bft)
03.03.2010 03:00 3.3 C 85 % 1022.3 hPa 0.0 l/m 1.7 km/h (1 Bft) SO 0.00 h 0 W/m 1.0 C 3.2 C 3.8 km/h (1 Bft)
03.03.2010 04:00 2.6 C 85 % 1021.8 hPa 0.0 l/m 1.3 km/h (1 Bft) NO 0.00 h 0 W/m 0.3 C 2.6 C 3.4 km/h (1 Bft)
03.03.2010 05:00 1.8 C 84 % 1021.7 hPa 0.0 l/m 0.5 km/h (0 Bft) NO 0.00 h 0 W/m -0.6 C 1.8 C 1.5 km/h (1 Bft)
03.03.2010 06:00 1.3 C 83 % 1020.9 hPa 0.0 l/m 1.9 km/h (1 Bft) N-NO 0.00 h 0 W/m -1.2 C 1.1 C 4.5 km/h (1 Bft)
03.03.2010 07:00 1.1 C 80 % 1020.3 hPa 0.0 l/m 2.7 km/h (1 Bft) N-NO 0.22 h 34 W/m -2.0 C 0.8 C 6.4 km/h (2 Bft)
03.03.2010 08:00 2.2 C 73 % 1019.7 hPa 0.0 l/m 1.9 km/h (1 Bft) O-NO 0.95 h 140 W/m -2.2 C 2.1 C 4.5 km/h (1 Bft)
03.03.2010 09:00 3.9 C 62 % 1018.6 hPa 0.0 l/m 4.0 km/h (1 Bft) NO 0.98 h 261 W/m -2.7 C 3.2 C 8.4 km/h (2 Bft)
03.03.2010 10:00 5.4 C 56 % 1017.7 hPa 0.0 l/m 5.9 km/h (2 Bft) O 0.90 h 315 W/m -2.7 C 4.4 C 11.6 km/h (2 Bft)
03.03.2010 11:00 6.1 C 54 % 1016.8 hPa 0.0 l/m 7.1 km/h (2 Bft) NO 0.62 h 311 W/m -2.4 C 4.8 C 15.2 km/h (3 Bft)
03.03.2010 12:00 7.0 C 51 % 1015.4 hPa 0.0 l/m 7.9 km/h (2 Bft) N-NO 0.90 h 375 W/m -2.4 C 5.6 C 16.7 km/h (3 Bft)
03.03.2010 13:00 7.1 C 48 % 1014.1 hPa 0.0 l/m 7.4 km/h (2 Bft) NO 0.13 h 262 W/m -3.0 C 5.9 C 15.0 km/h (3 Bft)
03.03.2010 14:00 7.2 C 47 % 1013.0 hPa 0.0 l/m 8.4 km/h (2 Bft) N-NO 0.00 h 189 W/m -3.3 C 5.7 C 17.2 km/h (3 Bft)
03.03.2010 15:00 7.0 C 43 % 1012.2 hPa 0.0 l/m 6.7 km/h (2 Bft) N 0.00 h 150 W/m -4.7 C 6.0 C 14.5 km/h (3 Bft)
03.03.2010 16:00 6.5 C 41 % 1011.6 hPa 0.0 l/m 8.3 km/h (2 Bft) N-NO 0.00 h 90 W/m -5.8 C 5.0 C 17.8 km/h (3 Bft)
03.03.2010 17:00 6.1 C 41 % 1011.4 hPa 0.0 l/m 5.5 km/h (1 Bft) N-NO 0.00 h 37 W/m -6.3 C 5.2 C 11.8 km/h (2 Bft)
03.03.2010 18:00 5.6 C 44 % 1011.2 hPa 0.0 l/m 4.3 km/h (1 Bft) NO 0.00 h 7 W/m -5.7 C 5.0 C 9.7 km/h (2 Bft)
03.03.2010 19:00 4.9 C 48 % 1011.0 hPa 0.0 l/m 6.0 km/h (2 Bft) N-NO 0.00 h 0 W/m -5.1 C 3.8 C 13.1 km/h (3 Bft)
03.03.2010 20:00 4.2 C 53 % 1010.6 hPa 0.0 l/m 5.5 km/h (1 Bft) O-NO 0.00 h 0 W/m -4.6 C 3.2 C 11.9 km/h (2 Bft)
03.03.2010 21:00 3.7 C 57 % 1010.4 hPa 0.0 l/m 5.7 km/h (1 Bft) NO 0.00 h 0 W/m -3.9 C 2.6 C 12.6 km/h (3 Bft)
03.03.2010 22:00 3.4 C 59 % 1010.3 hPa 0.0 l/m 4.5 km/h (1 Bft) N 0.00 h 0 W/m -4.0 C 2.6 C 9.8 km/h (2 Bft)
03.03.2010 23:00 3.2 C 56 % 1009.7 hPa 0.0 l/m 3.2 km/h (1 Bft) SO 0.00 h 0 W/m -4.6 C 2.9 C 6.8 km/h (2 Bft)
04.03.2010 00:00 3.2 C 53 % 1009.0 hPa 0.0 l/m 3.7 km/h (1 Bft) O-SO 0.00 h 0 W/m -5.4 C 2.6 C 7.6 km/h (2 Bft)
04.03.2010 01:00 3.2 C 52 % 1008.5 hPa 0.0 l/m 4.0 km/h (1 Bft) O-SO 0.00 h 0 W/m -5.8 C 2.5 C 7.9 km/h (2 Bft)
04.03.2010 02:00 3.2 C 51 % 1008.2 hPa 0.0 l/m 2.2 km/h (1 Bft) NW 0.00 h 0 W/m -5.9 C 2.9 C 5.0 km/h (1 Bft)
04.03.2010 03:00 3.1 C 53 % 1007.9 hPa 0.0 l/m 1.2 km/h (1 Bft) W-NW 0.00 h 0 W/m -5.6 C 3.1 C 3.0 km/h (1 Bft)
04.03.2010 04:00 3.0 C 56 % 1007.9 hPa 0.0 l/m 1.1 km/h (1 Bft) SO 0.00 h 0 W/m -5.0 C 3.0 C 2.9 km/h (1 Bft)
04.03.2010 05:00 2.9 C 58 % 1008.2 hPa 0.0 l/m 0.7 km/h (0 Bft) N 0.00 h 0 W/m -4.5 C 2.8 C 2.5 km/h (1 Bft)
04.03.2010 06:00 2.3 C 69 % 1008.7 hPa 0.0 l/m 1.7 km/h (1 Bft) SO 0.00 h 0 W/m -2.9 C 2.0 C 3.9 km/h (1 Bft)
04.03.2010 07:00 1.1 C 80 % 1009.5 hPa 0.0 l/m 1.1 km/h (1 Bft) N-NW 0.00 h 8 W/m -2.0 C 1.0 C 3.0 km/h (1 Bft)
04.03.2010 08:00 0.4 C 85 % 1010.2 hPa 0.6 l/m 1.1 km/h (1 Bft) O-SO 0.00 h 37 W/m -1.9 C 0.3 C 3.1 km/h (1 Bft)
04.03.2010 09:00 1.2 C 81 % 1010.6 hPa 0.0 l/m 0.8 km/h (0 Bft) O-SO 0.07 h 137 W/m -1.7 C 1.2 C 2.4 km/h (1 Bft)
04.03.2010 10:00 2.9 C 69 % 1011.0 hPa 0.0 l/m 2.2 km/h (1 Bft) N 0.55 h 274 W/m -2.3 C 2.6 C 5.4 km/h (1 Bft)
04.03.2010 11:00 4.4 C 60 % 1011.1 hPa 0.0 l/m 4.0 km/h (1 Bft) N 0.68 h 348 W/m -2.7 C 3.8 C 8.0 km/h (2 Bft)
04.03.2010 12:00 5.7 C 54 % 1011.3 hPa 0.0 l/m 4.4 km/h (1 Bft) O-SO 0.78 h 393 W/m -2.8 C 5.1 C 8.2 km/h (2 Bft)
04.03.2010 13:00 7.0 C 50 % 1011.1 hPa 0.0 l/m 4.9 km/h (1 Bft) O-SO 1.00 h 598 W/m -2.7 C 6.4 C 8.7 km/h (2 Bft)
04.03.2010 14:00 7.8 C 45 % 1011.3 hPa 0.0 l/m 4.2 km/h (1 Bft) N 0.22 h 260 W/m -3.4 C 7.4 C 8.2 km/h (2 Bft)
04.03.2010 15:00 7.2 C 42 % 1012.0 hPa 0.0 l/m 7.7 km/h (2 Bft) N-NW 0.15 h 185 W/m -4.7 C 5.9 C 14.1 km/h (3 Bft)
04.03.2010 16:00 6.5 C 44 % 1012.8 hPa 0.0 l/m 7.0 km/h (2 Bft) N 0.00 h 78 W/m -4.9 C 5.3 C 13.3 km/h (3 Bft)
04.03.2010 17:00 5.5 C 48 % 1014.0 hPa 0.0 l/m 8.7 km/h (2 Bft) N-NO 0.00 h 37 W/m -4.6 C 3.6 C 16.2 km/h (3 Bft)
04.03.2010 18:00 4.0 C 53 % 1015.5 hPa 0.0 l/m 9.0 km/h (2 Bft) N-NO 0.00 h 8 W/m -4.8 C 1.8 C 17.1 km/h (3 Bft)
04.03.2010 19:00 3.2 C 52 % 1016.8 hPa 0.0 l/m 7.7 km/h (2 Bft) N-NO 0.00 h 0 W/m -5.6 C 1.2 C 15.0 km/h (3 Bft)
04.03.2010 20:00 2.7 C 52 % 1017.6 hPa 0.0 l/m 6.1 km/h (2 Bft) N-NO 0.00 h 0 W/m -6.2 C 1.2 C 11.9 km/h (2 Bft)
04.03.2010 21:00 2.5 C 50 % 1018.3 hPa 0.0 l/m 5.9 km/h (2 Bft) N-NO 0.00 h 0 W/m -6.9 C 1.1 C 11.4 km/h (2 Bft)
04.03.2010 22:00 2.1 C 50 % 1018.9 hPa 0.0 l/m 6.0 km/h (2 Bft) N-NO 0.00 h 0 W/m -7.4 C 0.6 C 11.8 km/h (2 Bft)
04.03.2010 23:00 1.5 C 49 % 1019.3 hPa 0.0 l/m 4.4 km/h (1 Bft) N-NO 0.00 h 0 W/m -8.0 C 0.6 C 9.4 km/h (2 Bft)
05.03.2010 00:00 1.0 C 48 % 1019.9 hPa 0.0 l/m 3.2 km/h (1 Bft) N-NO 0.00 h 0 W/m -8.8 C 0.5 C 6.2 km/h (2 Bft)
05.03.2010 01:00 0.4 C 51 % 1020.4 hPa 0.0 l/m 1.9 km/h (1 Bft) N 0.00 h 0 W/m -8.5 C 0.2 C 4.1 km/h (1 Bft)
05.03.2010 02:00 -0.3 C 55 % 1020.8 hPa 0.0 l/m 0.8 km/h (0 Bft) N-NO 0.00 h 0 W/m -8.3 C -0.4 C 2.1 km/h (1 Bft)
05.03.2010 03:00 -1.0 C 58 % 1021.1 hPa 0.0 l/m 0.5 km/h (0 Bft) N-NO 0.00 h 0 W/m -8.2 C -1.0 C 2.0 km/h (1 Bft)
05.03.2010 04:00 -1.5 C 62 % 1021.7 hPa 0.0 l/m 0.7 km/h (0 Bft) O-NO 0.00 h 0 W/m -7.8 C -1.5 C 2.3 km/h (1 Bft)
05.03.2010 05:00 -2.2 C 67 % 1022.3 hPa 0.0 l/m 0.8 km/h (0 Bft) N-NO 0.00 h 0 W/m -7.5 C -2.2 C 1.6 km/h (1 Bft)
05.03.2010 06:00 -2.9 C 71 % 1022.9 hPa 0.0 l/m 0.1 km/h (0 Bft) N-NO 0.00 h 0 W/m -7.5 C -2.9 C 0.3 km/h (0 Bft)
05.03.2010 07:00 -3.2 C 74 % 1023.3 hPa 0.0 l/m 1.2 km/h (1 Bft) N-NO 0.02 h 19 W/m -7.1 C -3.2 C 2.0 km/h (1 Bft)
05.03.2010 08:00 -2.0 C 74 % 1023.9 hPa 0.0 l/m 0.7 km/h (0 Bft) O 0.68 h 146 W/m -5.9 C -2.0 C 1.3 km/h (1 Bft)
05.03.2010 09:00 0.8 C 60 % 1024.0 hPa 0.0 l/m 1.0 km/h (0 Bft) W-SW 1.00 h 320 W/m -6.1 C 0.8 C 2.5 km/h (1 Bft)
05.03.2010 10:00 2.6 C 44 % 1024.3 hPa 0.0 l/m 2.4 km/h (1 Bft) W-NW 0.75 h 395 W/m -8.6 C 2.4 C 5.0 km/h (1 Bft)
05.03.2010 11:00 3.0 C 36 % 1024.3 hPa 0.0 l/m 3.2 km/h (1 Bft) W-SW 0.65 h 454 W/m -10.7 C 2.6 C 5.9 km/h (2 Bft)
05.03.2010 12:00 3.5 C 34 % 1024.3 hPa 0.0 l/m 4.0 km/h (1 Bft) NW 0.57 h 475 W/m -10.8 C 2.9 C 6.8 km/h (2 Bft)
05.03.2010 13:00 3.5 C 33 % 1024.0 hPa 0.0 l/m 4.5 km/h (1 Bft) W 0.10 h 247 W/m -11.2 C 2.6 C 7.4 km/h (2 Bft)
05.03.2010 14:00 3.8 C 30 % 1023.8 hPa 0.0 l/m 6.4 km/h (2 Bft) W 0.48 h 408 W/m -12.1 C 2.4 C 9.7 km/h (2 Bft)
05.03.2010 15:00 4.5 C 26 % 1023.8 hPa 0.0 l/m 9.6 km/h (2 Bft) N-NW 0.60 h 282 W/m -13.3 C 2.3 C 16.1 km/h (3 Bft)
05.03.2010 16:00 4.2 C 26 % 1024.0 hPa 0.0 l/m 9.0 km/h (2 Bft) N-NW 0.98 h 234 W/m -13.3 C 2.1 C 14.3 km/h (3 Bft)
05.03.2010 17:00 3.5 C 28 % 1024.4 hPa 0.0 l/m 8.6 km/h (2 Bft) N-NW 0.42 h 70 W/m -13.4 C 1.3 C 13.9 km/h (3 Bft)
05.03.2010 18:00 1.6 C 34 % 1025.2 hPa 0.0 l/m 5.7 km/h (1 Bft) N-NW 0.05 h 9 W/m -12.6 C 0.1 C 9.0 km/h (2 Bft)
05.03.2010 19:00 0.1 C 44 % 1025.8 hPa 0.0 l/m 0.8 km/h (0 Bft) NO 0.00 h 0 W/m -10.7 C 0.1 C 1.5 km/h (1 Bft)
05.03.2010 20:00 -1.3 C 52 % 1025.5 hPa 0.0 l/m 1.9 km/h (1 Bft) NO 0.00 h 0 W/m -9.8 C -1.3 C 3.0 km/h (1 Bft)
05.03.2010 21:00 -2.1 C 60 % 1025.1 hPa 0.0 l/m 1.5 km/h (1 Bft) O-SO 0.00 h 0 W/m -8.9 C -2.2 C 2.9 km/h (1 Bft)
05.03.2010 22:00 -2.8 C 64 % 1024.8 hPa 0.0 l/m 1.8 km/h (1 Bft) O-SO 0.00 h 0 W/m -8.6 C -2.8 C 2.8 km/h (1 Bft)
05.03.2010 23:00 -3.2 C 66 % 1024.3 hPa 0.0 l/m 1.2 km/h (1 Bft) O-SO 0.00 h 0 W/m -8.6 C -3.2 C 1.7 km/h (1 Bft)
06.03.2010 00:00 -3.3 C 67 % 1023.4 hPa 0.0 l/m 1.2 km/h (1 Bft) O-SO 0.00 h 0 W/m -8.5 C -3.3 C 2.3 km/h (1 Bft)
06.03.2010 01:00 -3.3 C 66 % 1022.6 hPa 0.0 l/m 0.0 km/h (0 Bft) O-SO 0.00 h 0 W/m -8.7 C -3.3 C 0.3 km/h (0 Bft)
06.03.2010 02:00 -3.2 C 66 % 1021.6 hPa 0.0 l/m 1.3 km/h (1 Bft) W-SW 0.00 h 0 W/m -8.7 C -3.3 C 3.0 km/h (1 Bft)
06.03.2010 03:00 -2.7 C 64 % 1020.4 hPa 0.0 l/m 2.5 km/h (1 Bft) W-SW 0.00 h 0 W/m -8.6 C -3.1 C 4.2 km/h (1 Bft)
06.03.2010 04:00 -1.5 C 61 % 1019.4 hPa 0.0 l/m 8.5 km/h (2 Bft) W-SW 0.00 h 0 W/m -8.1 C -4.2 C 13.6 km/h (3 Bft)
06.03.2010 05:00 -0.7 C 60 % 1018.7 hPa 0.0 l/m 9.7 km/h (2 Bft) W-SW 0.00 h 0 W/m -7.5 C -3.9 C 15.5 km/h (3 Bft)
06.03.2010 06:00 -2.0 C 78 % 1018.5 hPa 0.0 l/m 7.0 km/h (2 Bft) SW 0.00 h 0 W/m -5.3 C -4.5 C 11.9 km/h (2 Bft)
06.03.2010 07:00 -2.8 C 87 % 1017.9 hPa 0.2 l/m 6.7 km/h (2 Bft) S-SW 0.00 h 5 W/m -4.7 C -5.4 C 11.5 km/h (2 Bft)
06.03.2010 08:00 -2.8 C 89 % 1017.1 hPa 0.6 l/m 5.8 km/h (2 Bft) SW 0.00 h 9 W/m -4.2 C -4.8 C 9.7 km/h (2 Bft)
06.03.2010 09:00 -2.2 C 91 % 1017.1 hPa 0.6 l/m 2.5 km/h (1 Bft) SW 0.00 h 12 W/m -3.5 C -2.2 C 4.7 km/h (1 Bft)
06.03.2010 10:00 -1.3 C 91 % 1017.8 hPa 1.4 l/m 8.8 km/h (2 Bft) W-NW 0.00 h 30 W/m -2.5 C -3.9 C 14.2 km/h (3 Bft)
06.03.2010 11:00 -0.3 C 85 % 1018.3 hPa 1.6 l/m 18.9 km/h (3 Bft) W 0.00 h 59 W/m -2.5 C -5.4 C 28.0 km/h (4 Bft)
06.03.2010 12:00 0.7 C 79 % 1018.8 hPa 1.6 l/m 15.4 km/h (3 Bft) W 0.00 h 141 W/m -2.5 C -3.5 C 23.8 km/h (4 Bft)
06.03.2010 13:00 2.6 C 70 % 1018.5 hPa 1.2 l/m 12.2 km/h (2 Bft) W 0.68 h 506 W/m -2.3 C -0.6 C 19.1 km/h (3 Bft)
06.03.2010 14:00 1.9 C 70 % 1018.5 hPa 0.0 l/m 11.3 km/h (2 Bft) W 0.32 h 311 W/m -2.9 C -1.2 C 17.4 km/h (3 Bft)
06.03.2010 15:00 1.6 C 72 % 1018.5 hPa 0.0 l/m 10.4 km/h (2 Bft) W 0.33 h 207 W/m -2.8 C -1.4 C 16.0 km/h (3 Bft)
06.03.2010 16:00 1.0 C 74 % 1018.5 hPa 0.0 l/m 8.1 km/h (2 Bft) W 0.35 h 144 W/m -3.0 C -1.5 C 13.4 km/h (3 Bft)
06.03.2010 17:00 0.6 C 76 % 1018.8 hPa 0.0 l/m 1.4 km/h (1 Bft) S 0.00 h 42 W/m -3.1 C 0.4 C 3.1 km/h (1 Bft)
06.03.2010 18:00 -0.4 C 78 % 1019.6 hPa 0.0 l/m 1.2 km/h (1 Bft) W-SW 0.02 h 10 W/m -3.7 C -0.4 C 2.9 km/h (1 Bft)
06.03.2010 19:00 -0.9 C 84 % 1020.5 hPa 0.0 l/m 3.3 km/h (1 Bft) O-SO 0.00 h 0 W/m -3.3 C -1.6 C 6.7 km/h (2 Bft)
06.03.2010 20:00 -1.6 C 85 % 1021.1 hPa 0.4 l/m 5.8 km/h (2 Bft) N 0.00 h 0 W/m -3.7 C -3.4 C 11.5 km/h (2 Bft)
06.03.2010 21:00 -2.2 C 77 % 1022.0 hPa 0.0 l/m 7.2 km/h (2 Bft) N 0.00 h 0 W/m -5.8 C -4.8 C 13.8 km/h (3 Bft)
06.03.2010 22:00 -2.9 C 73 % 1022.6 hPa 0.2 l/m 5.4 km/h (1 Bft) N-NO 0.00 h 0 W/m -7.0 C -4.7 C 11.2 km/h (2 Bft)
06.03.2010 23:00 -3.3 C 73 % 1023.0 hPa 0.0 l/m 2.5 km/h (1 Bft) NO 0.00 h 0 W/m -7.4 C -3.9 C 5.5 km/h (1 Bft)
07.03.2010 00:00 -3.5 C 74 % 1023.3 hPa 0.0 l/m 1.2 km/h (1 Bft) N-NO 0.00 h 0 W/m -7.5 C -3.5 C 3.4 km/h (1 Bft)
07.03.2010 01:00 -3.8 C 71 % 1023.5 hPa 0.0 l/m 1.0 km/h (0 Bft) NO 0.00 h 0 W/m -8.2 C -4.0 C 2.8 km/h (1 Bft)
07.03.2010 02:00 -3.8 C 72 % 1023.7 hPa 0.0 l/m 3.6 km/h (1 Bft) NO 0.00 h 0 W/m -8.1 C -4.7 C 7.9 km/h (2 Bft)
07.03.2010 03:00 -3.6 C 72 % 1023.4 hPa 0.0 l/m 4.0 km/h (1 Bft) O-NO 0.00 h 0 W/m -8.0 C -4.9 C 9.0 km/h (2 Bft)
07.03.2010 04:00 -3.7 C 72 % 1023.4 hPa 0.0 l/m 3.9 km/h (1 Bft) O 0.00 h 0 W/m -8.1 C -4.8 C 8.6 km/h (2 Bft)
07.03.2010 05:00 -4.0 C 71 % 1023.7 hPa 0.0 l/m 4.0 km/h (1 Bft) NO 0.00 h 0 W/m -8.4 C -5.2 C 9.3 km/h (2 Bft)
07.03.2010 06:00 -4.2 C 71 % 1023.7 hPa 0.0 l/m 4.9 km/h (1 Bft) O 0.00 h 0 W/m -8.6 C -5.9 C 10.9 km/h (2 Bft)
07.03.2010 07:00 -4.2 C 72 % 1023.9 hPa 0.0 l/m 4.0 km/h (1 Bft) N-NO 0.00 h 28 W/m -8.5 C -5.4 C 9.3 km/h (2 Bft)
07.03.2010 08:00 -4.1 C 72 % 1024.1 hPa 0.0 l/m 7.6 km/h (2 Bft) NO 0.00 h 59 W/m -8.3 C -7.1 C 16.4 km/h (3 Bft)
07.03.2010 09:00 -3.5 C 72 % 1024.4 hPa 0.0 l/m 5.7 km/h (1 Bft) N-NO 0.00 h 115 W/m -7.8 C -5.5 C 12.4 km/h (3 Bft)
07.03.2010 10:00 -2.8 C 68 % 1024.5 hPa 0.0 l/m 6.0 km/h (2 Bft) N-NO 0.00 h 207 W/m -7.9 C -4.8 C 12.6 km/h (3 Bft)
07.03.2010 11:00 -1.8 C 63 % 1024.2 hPa 0.0 l/m 7.2 km/h (2 Bft) NO 0.23 h 302 W/m -7.8 C -4.3 C 15.3 km/h (3 Bft)
07.03.2010 12:00 0.0 C 57 % 1023.6 hPa 0.0 l/m 7.0 km/h (2 Bft) N-NO 0.68 h 462 W/m -7.5 C -2.0 C 14.3 km/h (3 Bft)
07.03.2010 13:00 1.3 C 51 % 1022.9 hPa 0.2 l/m 8.9 km/h (2 Bft) N-NO 1.00 h 578 W/m -7.7 C -1.3 C 17.8 km/h (3 Bft)
07.03.2010 14:00 1.3 C 49 % 1022.6 hPa 0.0 l/m 9.3 km/h (2 Bft) O-SO 0.97 h 502 W/m -8.2 C -1.3 C 18.6 km/h (3 Bft)
07.03.2010 15:00 0.7 C 49 % 1022.2 hPa 0.0 l/m 12.1 km/h (2 Bft) O-SO 1.00 h 382 W/m -8.8 C -2.8 C 22.3 km/h (4 Bft)
07.03.2010 16:00 0.5 C 47 % 1021.9 hPa 0.0 l/m 10.7 km/h (2 Bft) O-SO 1.00 h 226 W/m -9.5 C -2.7 C 21.4 km/h (4 Bft)
07.03.2010 17:00 -0.1 C 47 % 1022.2 hPa 0.0 l/m 9.2 km/h (2 Bft) O 0.28 h 66 W/m -10.0 C -3.0 C 19.8 km/h (3 Bft)
07.03.2010 18:00 -1.2 C 49 % 1022.4 hPa 0.0 l/m 6.8 km/h (2 Bft) N-NO 0.02 h 9 W/m -10.5 C -3.3 C 14.6 km/h (3 Bft)
07.03.2010 19:00 -2.1 C 53 % 1022.8 hPa 0.0 l/m 8.1 km/h (2 Bft) N-NO 0.00 h 0 W/m -10.4 C -4.9 C 16.7 km/h (3 Bft)
07.03.2010 20:00 -2.8 C 55 % 1022.9 hPa 0.0 l/m 8.1 km/h (2 Bft) NO 0.00 h 0 W/m -10.4 C -5.7 C 16.6 km/h (3 Bft)
07.03.2010 21:00 -3.3 C 58 % 1022.9 hPa 0.0 l/m 8.9 km/h (2 Bft) N-NO 0.00 h 0 W/m -10.4 C -6.5 C 18.7 km/h (3 Bft)
07.03.2010 22:00 -3.8 C 59 % 1023.0 hPa 0.0 l/m 6.2 km/h (2 Bft) NO 0.00 h 0 W/m -10.6 C -6.0 C 13.6 km/h (3 Bft)
07.03.2010 23:00 -4.1 C 59 % 1023.0 hPa 0.0 l/m 5.9 km/h (2 Bft) NO 0.00 h 0 W/m -10.9 C -6.1 C 12.4 km/h (3 Bft)
Min-Datum _ 07.03.10 05.03.10 01.03.10 - 01.03.10 - - - 05.03.10 07.03.10 01.03.10
_ Min-Zeit 06:00 15:10 00:00 - 05:49 - - - 15:55 08:02 05:56
Minimum _ -4.3 C 24 % 1006.6 hPa - 0.0 km/h (0 Bft) - - - -14.4 C -10.1 C 0.0 km/h (0 Bft)
Max-Datum _ 01.03.10 06.03.10 05.03.10 06.03.10 01.03.10 - 01.03.10 06.03.10 02.03.10 01.03.10 01.03.10
_ Max-Zeit 15:22 10:25 19:00 11:09 00:11 - 07:19 13:19 14:57 15:22 00:05
Maximum _ 12.4 C 92 % 1025.9 hPa 1.6 l/m 38.2 km/h
W (5 Bft)
- 0.02 h 807 W/m 6.2 C 12.4 C 55.6 km/h
W (7 Bft)
Durchschnitt _ 2.6 C 64 % 1018.0 hPa #11.8 l/m 4.9 km/h (1 Bft) W #30:13 h 100 W/m -4.0 C 1.5 C 9.0 km/h (2 Bft)
© Kaiko 2010